Terminal Aerodrome Forecast
Issued by NWS

Home | Current Version | Previous Version | Text Only | Print | Product List | Glossary On
Versions: 1 2 3 4 5 6 7 8 9 10 11 12 13 14 15 16 17 18 19 20 21 22 23 24 25 26 27 28 29 30 31 32 33 34
000
FTUS43 KLOT 070901 AAA
TAFORD
TAF AMD
KORD 070901Z 0709/0812 26011G18KT P6SM FEW025 BKN150
     FM071600 25011G17KT P6SM BKN018 OVC100
     FM080000 28011G18KT P6SM BKN015=

USA.gov is the U.S. government's official web portal to all federal, state and local government web resources and services.